PWSweather.com
Personal Weather Stations
Station Observations
EA1HLH
Laracha, LarachaES 15145

LarachaLarachaES 15145

Lat: 43.2581509, Lon: -8.5868

Elevation: 650

Station Type: PCE-FWS20

Latest ConditionsUpdated 2:15:05 AM GMT+01:01 Sunday, Jul 21, 2019
Currently Today's Max Today's Min Today's Average
Temperature 61.2°F16.2°C 61.2°F16.2°C 56.8°F13.8°C 58.9°F14.9°C
Dew Point 57.3°F14.1°C 57.3°F14.1°C 51.7°F10.9°C 54.3°F12.4°C
Winds Calm Calm 2.3 mph -3.7 kmh - - 0.2 mph 0.3 kmh
Wind Gusts -- 3.5 mph5.6 kmh - -
Humidity 87% 87% 83% 85%
Pressure 30.14 in1020.7 mb 30.15 in1021.0 mb 30.14 in1020.7 mb -
Hour Temp Dew Point Humidity Winds Wind Gusts Pressure Precip Precip Rate Daily Precip Total
02:15 AM 61.2°F16.2°C 57.3°F14.1°C 87% Calm Calm -- 30.14 in1020.7 mb - 0.00 in0.0 mm 0.00 in0.0 mm
02:10 AM 61.2°F16.2°C 57.3°F14.1°C 87% Calm Calm -- 30.15 in1021.0 mb - 0.00 in0.0 mm 0.00 in0.0 mm
02:00 AM 61.0°F16.1°C 57.1°F13.9°C 87% 1.2 mph N1.9 kmh N 1.2 mph1.9 kmh 30.15 in1021.0 mb - 0.00 in0.0 mm 0.00 in0.0 mm
01:55 AM 60.8°F16.0°C 56.9°F13.8°C 87% Calm Calm 1.2 mph1.9 kmh 30.14 in1020.7 mb - 0.00 in0.0 mm 0.00 in0.0 mm
01:50 AM 60.3°F15.7°C 56.1°F13.4°C 86% 2.3 mph NE3.7 kmh NE 3.5 mph5.6 kmh 30.14 in1020.7 mb - 0.00 in0.0 mm 0.00 in0.0 mm
01:45 AM 60.3°F15.7°C 56.1°F13.4°C 86% Calm Calm -- 30.15 in1021.0 mb - 0.00 in0.0 mm 0.00 in0.0 mm
01:40 AM 60.3°F15.7°C 56.1°F13.4°C 86% 1.2 mph E1.9 kmh E 1.2 mph1.9 kmh 30.14 in1020.7 mb - 0.00 in0.0 mm 0.00 in0.0 mm
01:35 AM 60.1°F15.6°C 55.9°F13.3°C 86% Calm Calm -- 30.15 in1021.0 mb - 0.00 in0.0 mm 0.00 in0.0 mm
01:30 AM 59.5°F15.3°C 55.3°F12.9°C 86% 1.2 mph NE1.9 kmh NE 3.5 mph5.6 kmh 30.15 in1021.0 mb - 0.00 in0.0 mm 0.00 in0.0 mm
01:25 AM 59.2°F15.1°C 54.7°F12.6°C 85% Calm Calm 1.2 mph1.9 kmh 30.15 in1021.0 mb - 0.00 in0.0 mm 0.00 in0.0 mm
01:20 AM 59.2°F15.1°C 54.7°F12.6°C 85% Calm Calm -- 30.15 in1021.0 mb - 0.00 in0.0 mm 0.00 in0.0 mm
01:15 AM 59.2°F15.1°C 54.7°F12.6°C 85% Calm Calm -- 30.15 in1021.0 mb - 0.00 in0.0 mm 0.00 in0.0 mm
01:10 AM 59.0°F15.0°C 54.5°F12.5°C 85% Calm Calm -- 30.15 in1021.0 mb - 0.00 in0.0 mm 0.00 in0.0 mm
01:00 AM 58.6°F14.8°C 54.1°F12.3°C 85% Calm Calm -- 30.15 in1021.0 mb - 0.00 in0.0 mm 0.00 in0.0 mm
12:55 AM 58.5°F14.7°C 53.6°F12.0°C 84% Calm Calm -- 30.15 in1021.0 mb - 0.00 in0.0 mm 0.00 in0.0 mm
12:50 AM 58.1°F14.5°C 53.3°F11.8°C 84% Calm Calm -- 30.15 in1021.0 mb - 0.00 in0.0 mm 0.00 in0.0 mm
12:45 AM 57.9°F14.4°C 53.1°F11.7°C 84% Calm Calm -- 30.15 in1021.0 mb - 0.00 in0.0 mm 0.00 in0.0 mm
12:40 AM 57.6°F14.2°C 52.8°F11.6°C 84% Calm Calm -- 30.15 in1021.0 mb - 0.00 in0.0 mm 0.00 in0.0 mm
12:35 AM 57.4°F14.1°C 52.6°F11.4°C 84% Calm Calm -- 30.15 in1021.0 mb - 0.00 in0.0 mm 0.00 in0.0 mm
12:30 AM 57.2°F14.0°C 52.0°F11.1°C 83% Calm Calm -- 30.15 in1021.0 mb - 0.00 in0.0 mm 0.00 in0.0 mm
12:25 AM 57.0°F13.9°C 51.9°F11.1°C 83% Calm Calm -- 30.15 in1021.0 mb - 0.00 in0.0 mm 0.00 in0.0 mm
12:20 AM 56.8°F13.8°C 51.7°F10.9°C 83% Calm Calm -- 30.15 in1021.0 mb - 0.00 in0.0 mm 0.00 in0.0 mm
12:15 AM 57.0°F13.9°C 51.9°F11.1°C 83% Calm Calm -- 30.15 in1021.0 mb - 0.00 in0.0 mm 0.00 in0.0 mm
12:10 AM 56.8°F13.8°C 51.7°F10.9°C 83% Calm Calm -- 30.15 in1021.0 mb - 0.00 in0.0 mm 0.00 in0.0 mm
12:00 AM 57.1°F13.9°C 51.9°F11.1°C 83% Calm Calm -- 30.15 in1021.0 mb - 0.00 in0.0 mm 0.00 in0.0 mm